createdAt,value
2017-11-08T00:01:13.288Z,40.70
2017-11-08T00:03:40.764Z,40.07
2017-11-08T00:06:08.252Z,35.10
2017-11-08T00:08:35.725Z,32.03
2017-11-08T00:11:04.002Z,35.27
2017-11-08T00:13:31.506Z,31.20
2017-11-08T00:15:59.046Z,34.53
2017-11-08T00:18:26.516Z,39.27
2017-11-08T00:20:54.740Z,36.60
2017-11-08T00:23:22.933Z,35.30
2017-11-08T00:25:50.438Z,35.17
2017-11-08T00:28:17.961Z,31.47
2017-11-08T00:30:45.417Z,34.87
2017-11-08T00:33:12.884Z,34.97
2017-11-08T00:35:40.385Z,39.27
2017-11-08T00:38:08.647Z,39.13
2017-11-08T00:40:36.126Z,50.27
2017-11-08T00:43:04.391Z,36.27
2017-11-08T00:45:31.866Z,28.47
2017-11-08T00:48:00.091Z,36.50
2017-11-08T00:50:27.925Z,30.50
2017-11-08T00:52:55.494Z,40.57
2017-11-08T00:55:22.980Z,41.20
2017-11-08T00:57:50.439Z,43.87
2017-11-08T01:00:17.955Z,45.47
2017-11-08T01:02:45.549Z,49.77
2017-11-08T01:05:13.780Z,56.03
2017-11-08T01:07:41.310Z,44.07
2017-11-08T01:10:08.765Z,42.23
2017-11-08T01:12:36.238Z,44.87
2017-11-08T01:15:03.726Z,51.37
2017-11-08T01:17:31.207Z,45.47
2017-11-08T01:19:58.697Z,45.77
2017-11-08T01:22:26.942Z,37.00
2017-11-08T01:24:54.431Z,53.10
2017-11-08T01:27:22.676Z,44.53
2017-11-08T01:29:50.164Z,53.67
2017-11-08T01:32:17.640Z,50.90
2017-11-08T01:34:45.946Z,43.17
2017-11-08T01:37:13.411Z,54.10
2017-11-08T01:39:40.880Z,42.37
2017-11-08T01:42:08.388Z,43.03
2017-11-08T01:44:35.895Z,46.43
2017-11-08T01:47:03.388Z,47.43
2017-11-08T01:49:30.856Z,55.00
2017-11-08T01:51:58.350Z,45.40
2017-11-08T01:54:25.813Z,42.10
2017-11-08T01:56:53.301Z,52.77
2017-11-08T01:59:20.756Z,51.77
2017-11-08T02:01:49.006Z,46.43
2017-11-08T02:04:16.525Z,40.77
2017-11-08T02:06:43.982Z,42.80
2017-11-08T02:09:11.445Z,48.03
2017-11-08T02:11:38.924Z,44.73
2017-11-08T02:14:06.398Z,48.70
2017-11-08T02:16:33.908Z,42.47
2017-11-08T02:19:02.134Z,48.10
2017-11-08T02:21:29.603Z,45.03
2017-11-08T02:23:57.098Z,47.90
2017-11-08T02:26:24.596Z,46.00
2017-11-08T02:28:52.092Z,33.07
2017-11-08T02:31:19.559Z,42.70
2017-11-08T02:33:47.074Z,43.63
2017-11-08T02:36:15.305Z,41.90
2017-11-08T02:38:43.542Z,46.87
2017-11-08T02:41:11.030Z,47.87
2017-11-08T02:43:38.503Z,64.20
2017-11-08T02:46:05.986Z,55.57
2017-11-08T02:48:34.790Z,41.07
2017-11-08T02:51:02.273Z,50.70
2017-11-08T02:53:30.496Z,48.70
2017-11-08T02:55:57.991Z,37.70
2017-11-08T02:58:25.465Z,40.57
2017-11-08T03:00:53.752Z,41.20
2017-11-08T03:03:22.010Z,45.13
2017-11-08T03:05:49.524Z,42.17
2017-11-08T03:08:17.007Z,41.67
2017-11-08T03:10:44.495Z,42.20
2017-11-08T03:13:11.955Z,44.60
2017-11-08T03:15:39.431Z,44.80
2017-11-08T03:18:06.934Z,38.60
2017-11-08T03:20:34.390Z,39.47
2017-11-08T03:23:01.894Z,37.10
2017-11-08T03:25:29.347Z,43.17
2017-11-08T03:27:56.835Z,39.93
2017-11-08T03:30:24.388Z,42.10
2017-11-08T03:32:51.887Z,40.97
2017-11-08T03:35:20.872Z,42.70
2017-11-08T03:37:48.394Z,55.30
2017-11-08T03:40:15.840Z,49.40
2017-11-08T03:42:43.302Z,57.10
2017-11-08T03:45:10.819Z,50.33
2017-11-08T03:47:38.282Z,48.97
2017-11-08T03:52:33.229Z,50.07
2017-11-08T03:55:00.704Z,48.33
2017-11-08T03:57:28.216Z,50.17
2017-11-08T03:59:55.680Z,46.43
2017-11-08T04:02:23.143Z,46.60
2017-11-08T04:04:50.657Z,53.03
2017-11-08T04:07:18.200Z,55.57
2017-11-08T04:09:46.492Z,52.40
2017-11-08T04:12:14.057Z,53.27
2017-11-08T04:14:41.490Z,44.80
2017-11-08T04:17:08.994Z,44.30
2017-11-08T04:19:36.446Z,50.70
2017-11-08T04:22:03.947Z,43.77
2017-11-08T04:24:31.403Z,44.50
2017-11-08T04:26:58.865Z,52.53
2017-11-08T04:29:26.359Z,57.87
2017-11-08T04:31:53.820Z,49.87
2017-11-08T04:34:21.300Z,44.07
2017-11-08T04:36:49.585Z,50.70
2017-11-08T04:39:17.850Z,48.20
2017-11-08T04:41:45.309Z,51.37
2017-11-08T04:44:12.789Z,49.83
2017-11-08T04:46:41.053Z,48.30
2017-11-08T04:49:08.532Z,45.93
2017-11-08T04:51:37.126Z,50.03
2017-11-08T04:54:05.376Z,49.00
2017-11-08T04:56:32.893Z,44.90
2017-11-08T04:59:01.844Z,45.90
2017-11-08T05:01:30.112Z,37.00
2017-11-08T05:03:57.584Z,38.03
2017-11-08T05:06:25.045Z,59.30
2017-11-08T05:08:52.547Z,49.53
2017-11-08T05:11:19.999Z,35.97
2017-11-08T05:13:48.250Z,45.07
2017-11-08T05:16:15.712Z,42.90
2017-11-08T05:18:44.668Z,47.90
2017-11-08T05:21:12.149Z,48.57
2017-11-08T05:23:39.632Z,38.27
2017-11-08T05:26:07.122Z,42.03
2017-11-08T05:28:35.358Z,38.00
2017-11-08T05:31:02.845Z,41.00
2017-11-08T05:33:30.308Z,38.70
2017-11-08T05:35:57.806Z,40.43
2017-11-08T05:38:25.261Z,42.23
2017-11-08T05:40:52.748Z,30.00
2017-11-08T05:43:20.351Z,34.70
2017-11-08T05:45:47.821Z,39.87
2017-11-08T05:48:15.322Z,39.47
2017-11-08T05:50:42.797Z,43.40
2017-11-08T05:53:10.451Z,37.53
2017-11-08T05:55:37.921Z,42.60
2017-11-08T05:58:07.669Z,32.70
2017-11-08T06:00:35.857Z,45.20
2017-11-08T06:03:03.329Z,47.37
2017-11-08T06:05:30.844Z,46.67
2017-11-08T06:07:58.321Z,43.13
2017-11-08T06:10:25.764Z,50.37
2017-11-08T06:12:53.279Z,51.53
2017-11-08T06:15:20.768Z,43.33
2017-11-08T06:17:49.019Z,46.67
2017-11-08T06:20:16.491Z,56.00
2017-11-08T06:22:44.003Z,36.43
2017-11-08T06:25:11.462Z,45.73
2017-11-08T06:27:38.921Z,42.77
2017-11-08T06:30:06.458Z,39.43
2017-11-08T06:32:34.722Z,47.17
2017-11-08T06:35:02.180Z,47.63
2017-11-08T06:37:29.641Z,39.23
2017-11-08T06:39:57.154Z,40.67
2017-11-08T06:42:24.707Z,37.70
2017-11-08T06:44:52.185Z,38.67
2017-11-08T06:47:20.415Z,46.57
2017-11-08T06:49:47.901Z,43.50
2017-11-08T06:52:16.147Z,48.77
2017-11-08T06:54:43.636Z,43.37
2017-11-08T06:57:11.875Z,50.33
2017-11-08T06:59:39.375Z,40.97
2017-11-08T07:02:07.682Z,54.07
2017-11-08T07:04:35.095Z,48.67
2017-11-08T07:07:02.564Z,42.90
2017-11-08T07:09:30.096Z,45.97
2017-11-08T07:11:58.305Z,44.27
2017-11-08T07:14:25.816Z,38.83
2017-11-08T07:16:53.374Z,38.87
2017-11-08T07:19:21.640Z,41.87
2017-11-08T07:21:49.926Z,41.63
2017-11-08T07:24:18.141Z,42.33
2017-11-08T07:26:45.692Z,50.77
2017-11-08T07:29:13.155Z,33.07
2017-11-08T07:31:40.651Z,37.03
2017-11-08T07:34:08.145Z,36.50
2017-11-08T07:36:36.390Z,42.40
2017-11-08T07:39:03.863Z,46.73
2017-11-08T07:41:31.394Z,44.33
2017-11-08T07:43:58.851Z,48.00
2017-11-08T07:46:26.359Z,36.87
2017-11-08T07:48:53.868Z,35.70
2017-11-08T07:51:21.381Z,58.23
2017-11-08T07:53:48.872Z,42.27
2017-11-08T07:56:17.107Z,35.07
2017-11-08T07:58:44.619Z,50.13
2017-11-08T08:01:12.888Z,35.57
2017-11-08T08:03:41.124Z,48.50
2017-11-08T08:06:08.647Z,35.47
2017-11-08T08:08:36.894Z,40.60
2017-11-08T08:11:04.434Z,36.23
2017-11-08T08:13:31.991Z,41.97
2017-11-08T08:16:00.206Z,38.70
2017-11-08T08:18:27.738Z,38.17
2017-11-08T08:20:55.257Z,38.73
2017-11-08T08:23:22.724Z,44.33
2017-11-08T08:25:50.226Z,42.17
2017-11-08T08:28:17.755Z,44.00
2017-11-08T08:30:45.229Z,33.43
2017-11-08T08:33:12.733Z,34.37
2017-11-08T08:35:40.198Z,58.17
2017-11-08T08:38:07.780Z,36.50
2017-11-08T08:40:35.253Z,35.33
2017-11-08T08:43:03.541Z,40.17
2017-11-08T08:45:31.047Z,35.93
2017-11-08T08:47:58.509Z,42.23
2017-11-08T08:50:26.027Z,35.73
2017-11-08T08:52:54.323Z,41.73
2017-11-08T08:55:21.802Z,43.77
2017-11-08T08:57:49.291Z,46.70
2017-11-08T09:00:16.858Z,40.93
2017-11-08T09:02:44.360Z,37.67
2017-11-08T09:05:11.828Z,46.80
2017-11-08T09:07:40.056Z,36.87
2017-11-08T09:10:07.549Z,50.13
2017-11-08T09:12:35.048Z,42.07
2017-11-08T09:15:02.562Z,58.13
2017-11-08T09:17:30.040Z,40.10
2017-11-08T09:19:57.512Z,38.13
2017-11-08T09:22:24.949Z,39.77
2017-11-08T09:24:52.446Z,46.00
2017-11-08T09:27:20.676Z,39.50
2017-11-08T09:29:48.193Z,46.37
2017-11-08T09:32:15.671Z,42.27
2017-11-08T09:34:43.153Z,43.73
2017-11-08T09:37:10.623Z,32.47
2017-11-08T09:39:38.084Z,39.30
2017-11-08T09:42:05.610Z,43.07
2017-11-08T09:44:33.088Z,40.40
2017-11-08T09:47:00.606Z,41.23
2017-11-08T09:49:28.071Z,38.87
2017-11-08T09:51:55.563Z,39.53
2017-11-08T09:54:23.092Z,43.83
2017-11-08T09:56:50.537Z,35.27
2017-11-08T09:59:18.016Z,44.50
2017-11-08T10:01:45.802Z,41.77
2017-11-08T10:04:13.248Z,42.10
2017-11-08T10:06:40.839Z,33.00
2017-11-08T10:09:08.312Z,40.97
2017-11-08T10:11:35.779Z,29.23
2017-11-08T10:14:04.083Z,41.60
2017-11-08T10:16:31.595Z,46.17
2017-11-08T10:18:59.059Z,38.27
2017-11-08T10:21:27.290Z,41.73
2017-11-08T10:23:54.787Z,40.67
2017-11-08T10:26:22.263Z,40.90
2017-11-08T10:28:49.706Z,39.17
2017-11-08T10:31:17.207Z,36.33
2017-11-08T10:33:45.437Z,39.53
2017-11-08T10:36:12.997Z,51.33
2017-11-08T10:38:40.430Z,52.10
2017-11-08T10:41:07.961Z,56.07
2017-11-08T10:43:35.423Z,46.70
2017-11-08T10:46:02.930Z,39.77
2017-11-08T10:48:30.390Z,35.40
2017-11-08T10:50:57.967Z,41.37
2017-11-08T10:53:25.418Z,43.23
2017-11-08T10:55:52.921Z,40.27
2017-11-08T10:58:21.202Z,41.73
2017-11-08T11:00:49.514Z,44.37
2017-11-08T11:03:16.963Z,42.60
2017-11-08T11:05:44.537Z,45.17
2017-11-08T11:08:12.749Z,48.23
2017-11-08T11:10:40.266Z,42.23
2017-11-08T11:13:07.815Z,49.60
2017-11-08T11:15:36.094Z,51.90
2017-11-08T11:18:04.371Z,47.37
2017-11-08T11:20:32.633Z,43.83
2017-11-08T11:23:00.227Z,48.13
2017-11-08T11:25:27.702Z,40.90
2017-11-08T11:27:55.179Z,50.53
2017-11-08T11:30:22.650Z,48.97
2017-11-08T11:32:50.152Z,40.80
2017-11-08T11:35:17.666Z,44.00
2017-11-08T11:37:45.127Z,43.47
2017-11-08T11:40:12.568Z,47.30
2017-11-08T11:42:40.829Z,43.10
2017-11-08T11:45:09.103Z,51.63
2017-11-08T11:47:36.560Z,54.40
2017-11-08T11:50:04.173Z,50.10
2017-11-08T11:52:31.651Z,42.07
2017-11-08T11:54:59.172Z,44.53
2017-11-08T11:57:27.454Z,47.03
2017-11-08T11:59:54.941Z,60.13
2017-11-08T12:02:22.448Z,53.70
2017-11-08T12:04:49.901Z,52.33
2017-11-08T12:07:17.408Z,69.50
2017-11-08T12:09:44.861Z,51.57
2017-11-08T12:12:12.377Z,47.97
2017-11-08T12:14:39.837Z,51.63
2017-11-08T12:17:07.376Z,54.70
2017-11-08T12:19:35.599Z,47.60
2017-11-08T12:22:03.113Z,58.00
2017-11-08T12:24:31.333Z,55.37
2017-11-08T12:26:58.818Z,60.97
2017-11-08T12:29:26.365Z,49.70
2017-11-08T12:31:54.622Z,68.03
2017-11-08T12:34:22.158Z,54.77
2017-11-08T12:36:49.597Z,52.97
2017-11-08T12:39:17.097Z,60.93
2017-11-08T12:41:45.835Z,53.20
2017-11-08T12:44:13.402Z,58.80
2017-11-08T12:46:40.858Z,57.57
2017-11-08T12:49:08.488Z,58.63
2017-11-08T12:51:36.735Z,62.07
2017-11-08T12:54:04.540Z,50.30
2017-11-08T12:56:32.015Z,62.67
2017-11-08T12:58:59.469Z,61.73
2017-11-08T13:01:26.968Z,59.60
2017-11-08T13:03:54.467Z,61.23
2017-11-08T13:06:21.935Z,68.30
2017-11-08T13:08:49.406Z,56.47
2017-11-08T13:11:17.858Z,63.73
2017-11-08T13:13:45.381Z,63.47
2017-11-08T13:16:12.911Z,63.53
2017-11-08T13:18:40.380Z,69.20
2017-11-08T13:21:08.643Z,61.60
2017-11-08T13:23:36.093Z,63.70
2017-11-08T13:26:03.611Z,69.13
2017-11-08T13:28:32.028Z,65.20
2017-11-08T13:31:00.455Z,70.20
2017-11-08T13:33:28.143Z,55.30
2017-11-08T13:35:56.370Z,72.63
2017-11-08T13:38:24.468Z,61.90
2017-11-08T13:40:51.919Z,72.77
2017-11-08T13:43:19.422Z,78.20
2017-11-08T13:45:47.683Z,70.57
2017-11-08T13:48:15.177Z,77.90
2017-11-08T13:50:42.621Z,77.23
2017-11-08T13:53:10.165Z,73.63
2017-11-08T13:55:38.380Z,69.37
2017-11-08T13:58:05.863Z,75.53
2017-11-08T14:00:33.367Z,78.30
2017-11-08T14:03:01.665Z,67.27
2017-11-08T14:05:29.109Z,74.07
2017-11-08T14:07:57.344Z,75.83
2017-11-08T14:10:24.847Z,68.53
2017-11-08T14:12:52.382Z,74.13
2017-11-08T14:15:19.832Z,68.80
2017-11-08T14:17:47.294Z,80.23
2017-11-08T14:20:14.771Z,70.77
2017-11-08T14:22:42.250Z,85.43
2017-11-08T14:25:09.764Z,78.07
2017-11-08T14:27:37.992Z,80.77
2017-11-08T14:30:05.548Z,74.20
2017-11-08T14:32:33.036Z,83.50
2017-11-08T14:35:01.219Z,69.50
2017-11-08T14:37:28.653Z,72.63
2017-11-08T14:39:56.157Z,74.30
2017-11-08T14:42:24.537Z,68.33
2017-11-08T14:44:52.774Z,84.20
2017-11-08T14:47:20.348Z,89.57
2017-11-08T14:49:47.831Z,78.40
2017-11-08T14:52:15.390Z,76.13
2017-11-08T14:54:42.863Z,77.20
2017-11-08T14:57:11.183Z,81.67
2017-11-08T14:59:40.286Z,74.17
2017-11-08T15:02:07.726Z,62.90
2017-11-08T15:04:35.205Z,84.67
2017-11-08T15:07:02.728Z,84.33
2017-11-08T15:09:30.167Z,82.87
2017-11-08T15:11:57.709Z,80.13
2017-11-08T15:14:25.155Z,75.87
2017-11-08T15:16:52.625Z,77.90
2017-11-08T15:19:20.198Z,87.17
2017-11-08T15:21:47.656Z,89.80
2017-11-08T15:24:15.132Z,80.90
2017-11-08T15:26:42.669Z,84.17
2017-11-08T15:29:10.160Z,72.03
2017-11-08T15:31:37.682Z,83.67
2017-11-08T15:34:05.139Z,74.37
2017-11-08T15:36:33.427Z,81.93
2017-11-08T15:39:01.670Z,78.00
2017-11-08T15:41:29.135Z,81.97
2017-11-08T15:43:57.418Z,77.20
2017-11-08T15:46:24.883Z,87.57
2017-11-08T15:48:52.394Z,79.33
2017-11-08T15:51:19.906Z,77.57
2017-11-08T15:53:47.389Z,75.43
2017-11-08T15:56:15.688Z,86.97
2017-11-08T15:58:43.901Z,89.07
2017-11-08T16:01:11.363Z,93.07
2017-11-08T16:03:38.874Z,102.03
2017-11-08T16:06:07.146Z,78.87
2017-11-08T16:08:34.608Z,92.53
2017-11-08T16:11:02.165Z,75.37
2017-11-08T16:13:29.602Z,90.00
2017-11-08T16:15:57.082Z,84.67
2017-11-08T16:18:24.575Z,74.03
2017-11-08T16:20:52.814Z,70.27
2017-11-08T16:23:20.336Z,93.80
2017-11-08T16:25:47.788Z,74.40
2017-11-08T16:28:16.209Z,76.87
2017-11-08T16:30:43.736Z,73.40
2017-11-08T16:33:11.224Z,80.93
2017-11-08T16:35:38.746Z,88.37
2017-11-08T16:38:07.019Z,81.53
2017-11-08T16:40:34.424Z,87.57
2017-11-08T16:43:01.976Z,97.87
2017-11-08T16:45:29.488Z,73.77
2017-11-08T16:47:57.036Z,92.27
2017-11-08T16:50:24.488Z,81.83
2017-11-08T16:52:52.945Z,77.13
2017-11-08T16:55:20.669Z,75.07
2017-11-08T16:57:48.186Z,79.23
2017-11-08T17:00:15.642Z,79.87
2017-11-08T17:02:43.180Z,76.07
2017-11-08T17:05:10.684Z,90.50
2017-11-08T17:07:38.146Z,67.80
2017-11-08T17:10:05.664Z,70.67
2017-11-08T17:12:33.120Z,81.67
2017-11-08T17:15:00.693Z,67.23
2017-11-08T17:17:28.171Z,83.63
2017-11-08T17:19:56.458Z,72.70
2017-11-08T17:22:23.965Z,80.07
2017-11-08T17:24:51.458Z,78.30
2017-11-08T17:27:18.979Z,69.07
2017-11-08T17:29:47.175Z,80.87
2017-11-08T17:32:14.678Z,80.40
2017-11-08T17:34:42.140Z,77.17
2017-11-08T17:37:10.410Z,88.93
2017-11-08T17:39:38.030Z,80.47
2017-11-08T17:42:05.459Z,75.63
2017-11-08T17:44:32.975Z,73.00
2017-11-08T17:47:00.511Z,80.63
2017-11-08T17:49:27.973Z,85.83
2017-11-08T17:51:55.492Z,70.83
2017-11-08T17:54:22.989Z,77.83
2017-11-08T17:56:50.406Z,91.23
2017-11-08T17:59:17.897Z,87.80
2017-11-08T18:01:45.377Z,68.70
2017-11-08T18:04:12.933Z,80.90
2017-11-08T18:06:40.428Z,80.43
2017-11-08T18:09:07.916Z,78.17
2017-11-08T18:11:35.404Z,80.67
2017-11-08T18:14:03.652Z,69.87
2017-11-08T18:16:31.140Z,74.33
2017-11-08T18:18:58.673Z,79.87
2017-11-08T18:21:26.136Z,81.97
2017-11-08T18:23:53.632Z,87.70
2017-11-08T18:26:21.869Z,81.30
2017-11-08T18:28:50.072Z,76.23
2017-11-08T18:31:17.632Z,76.27
2017-11-08T18:33:45.101Z,81.43
2017-11-08T18:36:12.569Z,92.23
2017-11-08T18:38:40.060Z,84.13
2017-11-08T18:41:08.328Z,87.03
2017-11-08T18:43:35.857Z,79.90
2017-11-08T18:46:03.345Z,77.73
2017-11-08T18:48:30.823Z,71.73
2017-11-08T18:50:59.165Z,84.10
2017-11-08T18:53:26.670Z,83.93
2017-11-08T18:55:54.920Z,84.33
2017-11-08T18:58:22.375Z,99.20
2017-11-08T19:00:49.955Z,75.90
2017-11-08T19:03:17.436Z,83.37
2017-11-08T19:05:45.703Z,86.67
2017-11-08T19:08:13.287Z,90.93
2017-11-08T19:10:40.699Z,76.50
2017-11-08T19:13:08.179Z,83.23
2017-11-08T19:15:36.448Z,77.53
2017-11-08T19:18:03.948Z,88.10
2017-11-08T19:20:32.257Z,89.40
2017-11-08T19:23:00.452Z,86.70
2017-11-08T19:25:27.979Z,90.07
2017-11-08T19:27:55.444Z,94.67
2017-11-08T19:30:23.683Z,76.83
2017-11-08T19:32:51.197Z,90.17
2017-11-08T19:35:19.404Z,85.53
2017-11-08T19:37:47.640Z,80.37
2017-11-08T19:40:15.931Z,90.10
2017-11-08T19:42:43.468Z,80.37
2017-11-08T19:45:10.917Z,91.87
2017-11-08T19:47:38.414Z,92.83
2017-11-08T19:50:06.670Z,83.43
2017-11-08T19:52:34.167Z,70.07
2017-11-08T19:55:01.655Z,70.97
2017-11-08T19:57:29.139Z,71.47
2017-11-08T19:59:56.678Z,75.03
2017-11-08T20:02:24.946Z,76.23
2017-11-08T20:04:52.351Z,74.93
2017-11-08T20:07:19.847Z,93.23
2017-11-08T20:09:48.122Z,76.63
2017-11-08T20:12:16.358Z,70.57
2017-11-08T20:14:43.858Z,69.63
2017-11-08T20:17:11.356Z,66.83
2017-11-08T20:19:38.899Z,76.00
2017-11-08T20:22:07.120Z,83.00
2017-11-08T20:24:34.637Z,91.40
2017-11-08T20:27:02.895Z,83.13
2017-11-08T20:29:30.358Z,97.27
2017-11-08T20:31:57.815Z,91.97
2017-11-08T20:34:25.279Z,81.77
2017-11-08T20:36:52.736Z,86.13
2017-11-08T20:39:20.252Z,77.47
2017-11-08T20:41:48.512Z,86.03
2017-11-08T20:44:15.974Z,92.73
2017-11-08T20:46:43.438Z,84.93
2017-11-08T20:49:11.738Z,92.53
2017-11-08T20:51:39.212Z,83.70
2017-11-08T20:54:06.714Z,88.77
2017-11-08T20:56:34.541Z,93.40
2017-11-08T20:59:02.146Z,89.03
2017-11-08T21:01:29.569Z,86.33
2017-11-08T21:03:57.055Z,86.73
2017-11-08T21:06:24.568Z,86.57
2017-11-08T21:08:52.793Z,76.90
2017-11-08T21:11:20.442Z,82.17
2017-11-08T21:13:47.981Z,83.23
2017-11-08T21:16:15.432Z,91.10
2017-11-08T21:18:43.720Z,91.00
2017-11-08T21:21:11.189Z,99.23
2017-11-08T21:23:39.455Z,87.17
2017-11-08T21:26:06.967Z,87.93
2017-11-08T21:28:34.441Z,80.37
2017-11-08T21:31:01.944Z,83.80
2017-11-08T21:33:29.414Z,82.13
2017-11-08T21:35:57.700Z,91.50
2017-11-08T21:38:25.965Z,107.27
2017-11-08T21:40:53.429Z,79.70
2017-11-08T21:43:21.778Z,83.40
2017-11-08T21:45:49.282Z,86.77
2017-11-08T21:48:17.534Z,89.60
2017-11-08T21:50:45.049Z,90.87
2017-11-08T21:53:12.499Z,89.83
2017-11-08T21:55:40.026Z,88.27
2017-11-08T21:58:07.674Z,95.53
2017-11-08T22:00:35.177Z,95.60
2017-11-08T22:03:03.431Z,100.50
2017-11-08T22:05:30.944Z,100.67
2017-11-08T22:07:58.399Z,84.03
2017-11-08T22:10:25.886Z,93.87
2017-11-08T22:12:53.331Z,92.87
2017-11-08T22:15:20.813Z,79.73
2017-11-08T22:17:48.328Z,74.13
2017-11-08T22:20:15.813Z,94.37
2017-11-08T22:22:43.337Z,93.13
2017-11-08T22:25:10.802Z,79.37
2017-11-08T22:27:38.396Z,88.73
2017-11-08T22:30:05.932Z,88.23
2017-11-08T22:32:33.412Z,79.20
2017-11-08T22:35:00.939Z,83.57
2017-11-08T22:37:28.615Z,84.87
2017-11-08T22:39:56.055Z,87.13
2017-11-08T22:42:23.547Z,87.93
2017-11-08T22:44:52.598Z,88.03
2017-11-08T22:47:20.045Z,92.57
2017-11-08T22:49:47.566Z,106.03
2017-11-08T22:52:15.024Z,98.43
2017-11-08T22:54:42.489Z,87.53
2017-11-08T22:57:09.972Z,89.93
2017-11-08T22:59:37.463Z,95.30
2017-11-08T23:02:04.938Z,89.67
2017-11-08T23:04:32.452Z,86.03
2017-11-08T23:06:59.904Z,97.87
2017-11-08T23:09:27.393Z,92.30
2017-11-08T23:11:54.856Z,88.80
2017-11-08T23:14:23.144Z,94.97
2017-11-08T23:16:51.391Z,90.87
2017-11-08T23:19:18.898Z,93.83
2017-11-08T23:21:46.439Z,85.17
2017-11-08T23:24:14.686Z,91.40
2017-11-08T23:26:42.165Z,84.43
2017-11-08T23:29:09.662Z,93.77
2017-11-08T23:31:37.910Z,85.53
2017-11-08T23:34:05.389Z,88.00
2017-11-08T23:36:33.796Z,101.87
2017-11-08T23:39:02.057Z,92.33
2017-11-08T23:41:30.283Z,77.93
2017-11-08T23:43:58.468Z,88.30
2017-11-08T23:46:25.969Z,91.00
2017-11-08T23:48:53.465Z,107.80
2017-11-08T23:51:20.950Z,91.10
2017-11-08T23:53:48.424Z,89.77
2017-11-08T23:56:15.901Z,101.70
2017-11-08T23:58:43.432Z,89.13
